Lac La Biche Airport


Codes: CYLB/YLB
Name: Lac La Biche Airport
City: Lac La Biche
Country: Canada
Elevation: 1884 ft.
Wikipedia:

Photos at Lac La Biche Airport


   Photos courtesy of SpottingLog. You can add your own sightings and photos by signing up for a free trial today.



No photos found.

Weather at Lac La Biche Airport


Time (UTC)DescriptionTempratureWindCloud coverageVisibilityPressureHumidity
15-Apr-2024 18:00Light Rain7°C4 mph, SE100%10000m1009hPa51%
15-Apr-2024 21:00Overcast Clouds6°C13 mph, NW100%10000m1009hPa71%
16-Apr-2024 00:00Overcast Clouds5°C11 mph, NW100%10000m1011hPa80%
16-Apr-2024 03:00Overcast Clouds3°C11 mph, N100%10000m1012hPa87%
16-Apr-2024 06:00Overcast Clouds3°C11 mph, N100%10000m1013hPa78%
16-Apr-2024 09:00Overcast Clouds2°C11 mph, N100%10000m1015hPa78%
16-Apr-2024 12:00Overcast Clouds2°C11 mph, NW100%10000m1015hPa76%
16-Apr-2024 15:00Light Rain1°C9 mph, NW100%229m1017hPa95%
16-Apr-2024 18:00Light Snow1°C13 mph, NW100%5021m1019hPa87%
16-Apr-2024 21:00Light Snow2°C13 mph, N100%5979m1021hPa81%
17-Apr-2024 00:00Light Snow1°C13 mph, N100%10000m1023hPa82%
17-Apr-2024 03:00Light Snow-1°C13 mph, N100%1901m1026hPa91%
17-Apr-2024 06:00Light Snow-2°C13 mph, N100%10000m1028hPa80%
17-Apr-2024 09:00Overcast Clouds-2°C11 mph, N100%10000m1030hPa80%
17-Apr-2024 12:00Overcast Clouds-4°C11 mph, NW100%10000m1032hPa82%
17-Apr-2024 15:00Overcast Clouds-3°C11 mph, N100%10000m1033hPa68%
17-Apr-2024 18:00Overcast Clouds1°C11 mph, N100%10000m1033hPa48%
17-Apr-2024 21:00Overcast Clouds3°C11 mph, N98%10000m1033hPa37%
18-Apr-2024 00:00Overcast Clouds2°C13 mph, N99%10000m1033hPa42%
18-Apr-2024 03:00Broken Clouds-2°C9 mph, N59%10000m1036hPa63%
18-Apr-2024 06:00Broken Clouds-4°C7 mph, N56%10000m1038hPa78%
18-Apr-2024 09:00Overcast Clouds-6°C4 mph, N96%10000m1039hPa84%
18-Apr-2024 12:00Broken Clouds-6°C4 mph, N69%10000m1040hPa86%
18-Apr-2024 15:00Few Clouds-3°C7 mph, N22%10000m1039hPa57%
18-Apr-2024 18:00Few Clouds2°C7 mph, N13%10000m1037hPa30%
18-Apr-2024 21:00Clear Sky5°C9 mph, N2%10000m1034hPa26%
19-Apr-2024 00:00Few Clouds5°C9 mph, N20%10000m1034hPa34%
19-Apr-2024 03:00Overcast Clouds-1°C7 mph, N96%10000m1035hPa62%
19-Apr-2024 06:00Overcast Clouds-2°C4 mph, NE98%10000m1036hPa70%
19-Apr-2024 09:00Overcast Clouds-3°C2 mph, NE100%10000m1036hPa72%
19-Apr-2024 12:00Overcast Clouds-4°C2 mph, N100%10000m1037hPa72%
19-Apr-2024 15:00Broken Clouds1°C2 mph, NW80%10000m1036hPa49%
19-Apr-2024 18:00Broken Clouds7°C2 mph, NW59%10000m1033hPa33%
19-Apr-2024 21:00Clear Sky9°C4 mph, SW5%10000m1030hPa28%
20-Apr-2024 00:00Clear Sky9°C4 mph, SW6%10000m1028hPa27%
20-Apr-2024 03:00Clear Sky4°C4 mph, S8%10000m1028hPa43%
20-Apr-2024 06:00Few Clouds1°C4 mph, S13%10000m1027hPa49%
20-Apr-2024 09:00Few Clouds-0°C7 mph, S19%10000m1026hPa57%
20-Apr-2024 12:00Few Clouds-1°C4 mph, SW22%10000m1025hPa60%
20-Apr-2024 15:00Few Clouds5°C7 mph, SW24%10000m1023hPa40%